Time;durP1;ratioP1;P1;durP2;ratioP2;P2;SDS_P1;SDS_P2;PMS_P1;PMS_P2;Temp;Humidity;BMP_temperature;BMP_pressure;BME280_temperature;BME280_humidity;BME280_pressure;Samples;Min_cycle;Max_cycle;Signal;HPM_P1;HPM_P2
2024/05/01 00:01:44;;;;;;;14.10;12.60;;;;;;;13.90;100.00;100114.53;5314404;26;20483;-90
2024/05/01 00:04:13;;;;;;;16.85;13.65;;;;;;;13.94;100.00;100118.75;5297441;26;20274;-89
2024/05/01 00:06:38;;;;;;;16.77;15.20;;;;;;;13.52;100.00;100052.69;5338710;26;20259;-90
2024/05/01 00:09:09;;;;;;;16.42;14.93;;;;;;;13.59;100.00;100076.09;5377517;26;20291;-89
2024/05/01 00:11:35;;;;;;;17.92;16.02;;;;;;;13.74;100.00;100105.41;5337848;26;20321;-89
2024/05/01 00:14:03;;;;;;;15.07;13.68;;;;;;;13.58;100.00;100065.63;5375947;26;20279;-89
2024/05/01 00:16:29;;;;;;;15.18;12.60;;;;;;;13.76;100.00;100109.72;5338079;26;20284;-90
2024/05/01 00:18:58;;;;;;;15.55;13.98;;;;;;;13.41;100.00;100051.28;5343803;26;20243;-89
2024/05/01 00:21:23;;;;;;;15.50;13.95;;;;;;;13.35;100.00;100040.09;5349350;26;20234;-88
2024/05/01 00:23:52;;;;;;;15.50;14.02;;;;;;;13.31;100.00;100031.47;5329023;26;20239;-88
2024/05/01 00:26:20;;;;;;;15.98;14.57;;;;;;;13.70;100.00;100104.69;5325831;26;20579;-89
2024/05/01 00:28:49;;;;;;;15.25;13.70;;;;;;;13.44;100.00;100064.31;5328897;26;20287;-88
2024/05/01 00:31:14;;;;;;;15.18;13.63;;;;;;;13.71;100.00;100108.16;5349432;26;20243;-89
2024/05/01 00:33:44;;;;;;;14.70;12.90;;;;;;;13.56;100.00;100081.47;5389583;26;20290;-88
2024/05/01 00:36:10;;;;;;;14.85;13.35;;;;;;;13.25;100.00;100029.03;5344324;26;20235;-89
2024/05/01 00:38:38;;;;;;;13.82;12.43;;;;;;;13.62;100.00;100086.50;5358577;26;20327;-88
2024/05/01 00:41:04;;;;;;;14.23;12.88;;;;;;;13.42;100.00;100068.78;5355469;26;20944;-88
2024/05/01 00:43:35;;;;;;;13.40;12.10;;;;;;;13.29;100.00;100051.72;5351410;26;20242;-89
2024/05/01 00:46:04;;;;;;;14.10;12.80;;;;;;;13.19;100.00;100042.38;5351481;26;20290;-89
2024/05/01 00:48:32;;;;;;;14.88;13.57;;;;;;;13.31;100.00;100057.78;5339058;26;20637;-89
2024/05/01 00:50:59;;;;;;;14.25;13.00;;;;;;;13.32;100.00;100062.09;5349720;26;20331;-88
2024/05/01 00:53:28;;;;;;;13.90;12.63;;;;;;;13.30;100.00;100063.94;5330811;26;20293;-88
2024/05/01 00:55:56;;;;;;;13.45;12.15;;;;;;;13.41;100.00;100081.97;5333678;26;20276;-87
2024/05/01 00:58:22;;;;;;;13.50;12.30;;;;;;;13.13;100.00;100045.22;5323698;26;20260;-88
2024/05/01 01:00:53;;;;;;;15.07;12.77;;;;;;;13.37;100.00;100075.97;5321780;26;20244;-88
2024/05/01 01:03:20;;;;;;;14.30;12.80;;;;;;;13.01;100.00;100018.41;5362819;26;20250;-88
2024/05/01 01:05:48;;;;;;;14.05;12.65;;;;;;;13.33;100.00;100074.34;5303644;26;20763;-87
2024/05/01 01:08:16;;;;;;;13.80;12.45;;;;;;;13.18;100.00;100046.75;5278208;26;20285;-88
2024/05/01 01:10:45;;;;;;;14.95;12.60;;;;;;;13.11;100.00;100047.88;5320347;26;20297;-88
2024/05/01 01:13:10;;;;;;;12.30;11.18;;;;;;;13.10;100.00;100059.28;5288720;26;20773;-87
2024/05/01 01:15:39;;;;;;;13.23;11.82;;;;;;;13.23;100.00;100080.81;5310251;26;20260;-88
2024/05/01 01:18:09;;;;;;;12.27;11.07;;;;;;;13.19;100.00;100077.41;5289489;26;20296;-88
2024/05/01 01:20:37;;;;;;;11.07;10.13;;;;;;;12.99;100.00;100053.53;5282478;26;20237;-89
2024/05/01 01:23:06;;;;;;;11.65;10.65;;;;;;;13.04;100.00;100077.88;5282198;26;20243;-88
2024/05/01 01:25:34;;;;;;;11.57;10.65;;;;;;;12.75;100.00;100021.88;5296346;26;20306;-88
2024/05/01 01:28:00;;;;;;;12.13;10.93;;;;;;;12.71;100.00;100016.75;5300163;26;20267;-87
2024/05/01 01:30:29;;;;;;;12.38;11.15;;;;;;;13.01;100.00;100072.75;5306886;27;20287;-87
2024/05/01 01:32:54;;;;;;;13.15;11.93;;;;;;;12.90;100.00;100048.56;5293435;26;20308;-90
2024/05/01 01:35:23;;;;;;;15.48;13.90;;;;;;;12.57;100.00;100001.44;5314212;26;20335;-89
2024/05/01 01:37:48;;;;;;;13.90;12.60;;;;;;;12.28;100.00;99955.09;5304791;26;20251;-89
2024/05/01 01:40:20;;;;;;;14.43;13.00;;;;;;;12.72;100.00;100042.09;5299346;26;20274;-88
2024/05/01 01:42:46;;;;;;;13.50;12.18;;;;;;;12.56;100.00;100013.72;5308769;26;20243;-89
2024/05/01 01:45:14;;;;;;;13.10;11.85;;;;;;;12.93;100.00;100077.38;5312957;26;20309;-89
2024/05/01 01:47:40;;;;;;;12.90;11.60;;;;;;;12.90;100.00;100067.81;5284134;27;20693;-88
2024/05/01 01:50:09;;;;;;;13.52;12.20;;;;;;;12.60;100.00;100017.13;5304488;26;20244;-87
2024/05/01 01:52:35;;;;;;;13.10;11.90;;;;;;;12.64;100.00;100032.72;5290343;27;20571;-88
2024/05/01 01:55:04;;;;;;;13.55;12.32;;;;;;;12.60;100.00;100041.59;5263431;26;20630;-87
2024/05/01 01:57:32;;;;;;;13.65;12.30;;;;;;;12.63;100.00;100040.63;5288042;26;20247;-87
2024/05/01 02:00:01;;;;;;;13.98;12.68;;;;;;;12.19;100.00;99972.84;5268827;26;21135;-88
2024/05/01 02:02:31;;;;;;;13.10;11.85;;;;;;;12.29;100.00;100004.88;5269521;27;20253;-87
2024/05/01 02:04:59;;;;;;;12.90;11.65;;;;;;;12.15;100.00;99973.84;5308412;26;20984;-88
2024/05/01 02:07:25;;;;;;;14.27;12.77;;;;;;;12.52;100.00;100042.75;5301645;26;20744;-87
2024/05/01 02:09:54;;;;;;;12.70;11.70;;;;;;;12.54;100.00;100059.31;5336285;26;20248;-87
2024/05/01 02:12:20;;;;;;;12.95;11.75;;;;;;;12.11;100.00;99995.81;5309342;26;20276;-88
2024/05/01 02:14:51;;;;;;;12.93;11.82;;;;;;;12.11;100.00;100000.19;5297018;26;20248;-88
2024/05/01 02:17:17;;;;;;;13.43;11.98;;;;;;;12.43;100.00;100062.25;5314361;26;20628;-88
2024/05/01 02:19:45;;;;;;;13.50;12.27;;;;;;;12.32;100.00;100041.56;5335156;26;20248;-88
2024/05/01 02:22:11;;;;;;;12.70;11.50;;;;;;;12.06;100.00;100007.34;5335702;26;20711;-87
2024/05/01 02:24:39;;;;;;;12.65;11.50;;;;;;;12.03;100.00;99995.19;5311857;26;20254;-88
2024/05/01 02:27:07;;;;;;;13.70;12.35;;;;;;;12.31;100.00;100037.19;5296137;26;20335;-88
2024/05/01 02:29:35;;;;;;;14.23;12.82;;;;;;;12.44;100.00;100053.47;5340508;26;20282;-87
2024/05/01 02:32:04;;;;;;;13.82;12.40;;;;;;;12.38;100.00;100040.53;5337724;26;20912;-87
2024/05/01 02:34:33;;;;;;;14.80;13.27;;;;;;;12.32;100.00;100030.22;5295252;26;20251;-88
2024/05/01 02:36:58;;;;;;;15.68;14.13;;;;;;;12.40;100.00;100025.59;5302709;26;20246;-87
2024/05/01 02:39:27;;;;;;;14.48;13.15;;;;;;;12.28;100.00;100012.84;5335241;26;20244;-88
2024/05/01 02:41:53;;;;;;;14.18;12.77;;;;;;;12.42;100.00;100040.38;5309510;26;20263;-88
2024/05/01 02:44:21;;;;;;;14.13;12.63;;;;;;;12.14;100.00;99981.75;5310293;26;20255;-88
2024/05/01 02:46:49;;;;;;;14.63;13.23;;;;;;;12.47;100.00;100048.13;5301033;26;20244;-88
2024/05/01 02:49:18;;;;;;;14.80;13.27;;;;;;;12.27;100.00;100005.84;5307187;26;20248;-88
2024/05/01 02:51:46;;;;;;;13.90;12.45;;;;;;;12.43;100.00;100044.72;5289081;26;20722;-87
2024/05/01 02:54:12;;;;;;;13.20;11.90;;;;;;;12.40;100.00;100038.72;5308508;26;20593;-88
2024/05/01 02:56:40;;;;;;;13.52;12.30;;;;;;;12.34;100.00;100038.91;5312791;26;20282;-88
2024/05/01 02:59:06;;;;;;;12.55;11.45;;;;;;;12.19;100.00;100025.31;5316849;26;20255;-88
2024/05/01 03:01:35;;;;;;;12.48;11.38;;;;;;;12.21;100.00;100034.00;5308349;26;20240;-88
2024/05/01 03:04:01;;;;;;;12.52;11.40;;;;;;;12.06;100.00;100005.56;5299433;26;20350;-88
2024/05/01 03:06:32;;;;;;;13.60;12.35;;;;;;;12.09;100.00;100021.25;5271832;27;20255;-88
2024/05/01 03:08:58;;;;;;;12.80;11.50;;;;;;;12.08;100.00;100009.03;5260626;27;20244;-88
2024/05/01 03:11:27;;;;;;;13.70;12.45;;;;;;;12.07;100.00;100016.94;5292053;26;20357;-88
2024/05/01 03:13:52;;;;;;;13.13;11.77;;;;;;;12.00;100.00;100003.97;5275431;27;20260;-88
2024/05/01 03:16:21;;;;;;;14.93;13.38;;;;;;;11.99;100.00;99993.56;5290470;26;20248;-88
2024/05/01 03:18:46;;;;;;;14.18;12.75;;;;;;;12.09;100.00;100016.00;5281488;26;20336;-88
2024/05/01 03:21:15;;;;;;;15.23;13.70;;;;;;;11.90;100.00;99983.31;5286947;26;20248;-89
2024/05/01 03:23:43;;;;;;;14.15;12.85;;;;;;;11.58;100.00;99943.09;5285929;26;20795;-88
2024/05/01 03:26:14;;;;;;;14.55;13.15;;;;;;;11.94;100.00;100017.28;5276692;26;20256;-88
2024/05/01 03:28:40;;;;;;;13.50;12.25;;;;;;;11.93;100.00;100002.47;5265561;26;20303;-88
2024/05/01 03:31:14;;;;;;;14.18;12.88;;;;;;;11.55;100.00;99951.06;5271749;26;20241;-88
2024/05/01 03:33:40;;;;;;;14.48;13.18;;;;;;;11.96;100.00;100010.22;5302132;26;20294;-88
2024/05/01 03:36:13;;;;;;;14.27;13.07;;;;;;;11.96;100.00;100002.34;5299577;26;20886;-88
2024/05/01 03:38:41;;;;;;;15.00;13.70;;;;;;;11.84;100.00;99987.81;5295039;26;20274;-88
2024/05/01 03:41:19;;;;;;;14.60;13.20;;;;;;;11.80;100.00;99998.41;5302542;26;20743;-89
2024/05/01 03:43:48;;;;;;;14.27;12.88;;;;;;;11.74;100.00;99981.06;5288687;26;20610;-89
2024/05/01 03:46:17;;;;;;;14.60;13.23;;;;;;;11.77;100.00;99988.88;5303257;26;20275;-88
2024/05/01 03:48:45;;;;;;;15.68;14.18;;;;;;;11.92;100.00;100002.50;5291330;26;20260;-87
2024/05/01 03:51:14;;;;;;;14.45;12.98;;;;;;;11.86;100.00;100003.50;5280326;26;20319;-88
2024/05/01 03:53:42;;;;;;;13.93;12.63;;;;;;;11.74;100.00;99996.81;5299447;26;20274;-88
2024/05/01 03:56:11;;;;;;;14.98;13.50;;;;;;;11.66;100.00;99990.94;5302958;26;20270;-88
2024/05/01 03:58:42;;;;;;;14.30;12.90;;;;;;;11.56;100.00;99960.63;5268824;27;20354;-88
2024/05/01 04:01:11;;;;;;;14.35;12.95;;;;;;;11.85;100.00;100021.00;5288876;26;20239;-89
2024/05/01 04:03:42;;;;;;;13.63;12.40;;;;;;;11.59;100.00;99986.78;5280610;27;20328;-87
2024/05/01 04:06:11;;;;;;;14.07;12.80;;;;;;;11.56;100.00;100003.44;5276593;26;20337;-87
2024/05/01 04:08:40;;;;;;;14.05;12.75;;;;;;;11.58;100.00;99992.91;5263120;26;20311;-87
2024/05/01 04:11:08;;;;;;;13.60;12.20;;;;;;;11.49;100.00;99973.03;5268835;26;20279;-88
2024/05/01 04:13:36;;;;;;;13.80;12.70;;;;;;;11.65;100.00;99997.09;5297736;26;20248;-87
2024/05/01 04:16:10;;;;;;;17.33;15.63;;;;;;;11.42;100.00;99966.25;5282439;27;20688;-88
2024/05/01 04:18:39;;;;;;;13.82;12.63;;;;;;;11.74;100.00;100020.41;5254344;26;20718;-88
2024/05/01 04:21:07;;;;;;;14.25;12.95;;;;;;;11.40;100.00;99966.28;5278643;27;20243;-88
2024/05/01 04:23:33;;;;;;;13.80;12.50;;;;;;;11.62;100.00;100003.28;5283876;26;20270;-89
2024/05/01 04:26:02;;;;;;;13.95;12.65;;;;;;;11.79;100.00;100028.19;5264327;27;20256;-88
2024/05/01 04:28:30;;;;;;;13.55;12.40;;;;;;;11.56;100.00;99995.59;5308209;26;20244;-89
2024/05/01 04:30:59;;;;;;;13.75;12.40;;;;;;;11.72;100.00;100001.25;5312073;26;20406;-88
2024/05/01 04:33:30;;;;;;;13.75;12.38;;;;;;;11.72;100.00;100005.63;5258888;26;20244;-88
2024/05/01 04:35:58;;;;;;;13.77;12.32;;;;;;;11.36;100.00;99943.69;5309072;26;20236;-88
2024/05/01 04:38:27;;;;;;;14.60;13.30;;;;;;;11.78;100.00;100018.56;5285905;26;20258;-88
2024/05/01 04:40:55;;;;;;;14.00;12.75;;;;;;;11.64;100.00;99983.13;5303880;26;20270;-88
2024/05/01 04:43:23;;;;;;;13.35;12.15;;;;;;;11.82;100.00;100017.59;5301260;26;20263;-88
2024/05/01 04:45:52;;;;;;;13.55;12.45;;;;;;;11.71;100.00;99991.66;5270771;27;20260;-89
2024/05/01 04:48:20;;;;;;;16.58;15.05;;;;;;;11.81;100.00;99984.41;5268612;26;20264;-88
2024/05/01 04:50:51;;;;;;;12.30;11.13;;;;;;;11.84;100.00;100008.81;5302695;26;20286;-88
2024/05/01 04:53:20;;;;;;;13.63;12.23;;;;;;;11.96;100.00;100023.34;5258416;26;20249;-88
2024/05/01 04:55:48;;;;;;;13.48;12.23;;;;;;;11.98;100.00;100012.81;5298737;26;20247;-88
2024/05/01 04:58:16;;;;;;;14.18;12.57;;;;;;;11.88;100.00;99998.22;5249405;26;20818;-89
2024/05/01 05:00:45;;;;;;;14.32;12.85;;;;;;;12.03;100.00;100000.44;5277765;27;20248;-89
2024/05/01 05:03:13;;;;;;;12.43;11.32;;;;;;;12.05;100.00;100022.25;5306164;26;20347;-88
2024/05/01 05:05:41;;;;;;;13.55;12.35;;;;;;;11.73;100.00;99958.41;5304419;26;20290;-88
2024/05/01 05:08:12;;;;;;;13.38;12.02;;;;;;;11.81;100.00;99959.03;5274889;27;20305;-88
2024/05/01 05:10:41;;;;;;;13.32;12.13;;;;;;;12.15;100.00;100013.19;5278242;26;20344;-88
2024/05/01 05:13:09;;;;;;;12.57;11.27;;;;;;;12.06;100.00;99996.84;5301953;26;20289;-88
2024/05/01 05:15:38;;;;;;;13.23;11.80;;;;;;;12.09;100.00;99989.75;5269833;26;20390;-88
2024/05/01 05:18:07;;;;;;;13.45;12.32;;;;;;;11.95;100.00;99981.44;5273328;26;20326;-88
2024/05/01 05:20:35;;;;;;;12.95;11.80;;;;;;;11.87;100.00;99920.44;5278286;26;20488;-88
2024/05/01 05:23:03;;;;;;;14.13;12.93;;;;;;;12.27;100.00;100011.94;5270583;27;20362;-88
2024/05/01 05:25:34;;;;;;;15.20;13.68;;;;;;;12.18;100.00;99965.84;5286927;26;20284;-88
2024/05/01 05:28:03;;;;;;;14.40;13.02;;;;;;;12.39;100.00;99994.97;5264099;27;20272;-89
2024/05/01 05:30:31;;;;;;;14.57;13.23;;;;;;;12.50;100.00;99995.53;5302760;26;20244;-88
2024/05/01 05:32:59;;;;;;;15.75;14.02;;;;;;;12.36;100.00;99958.34;5281314;27;20254;-88
2024/05/01 05:35:28;;;;;;;15.32;13.85;;;;;;;12.16;100.00;99922.19;5274046;26;20263;-88
2024/05/01 05:37:56;;;;;;;14.25;13.05;;;;;;;12.18;100.00;99936.97;5262003;27;20348;-87
2024/05/01 05:40:24;;;;;;;15.70;14.15;;;;;;;12.59;100.00;99989.13;5282318;26;20255;-89
2024/05/01 05:42:55;;;;;;;15.05;13.57;;;;;;;12.24;100.00;99909.69;5303044;26;20330;-88
2024/05/01 05:45:24;;;;;;;13.57;12.40;;;;;;;12.52;100.00;99956.94;5292800;26;20298;-88
2024/05/01 05:47:52;;;;;;;14.15;12.85;;;;;;;12.58;100.00;99935.75;5296688;26;20315;-88
2024/05/01 05:50:20;;;;;;;15.32;14.00;;;;;;;12.47;100.00;99921.25;5274140;26;20280;-88
2024/05/01 05:52:49;;;;;;;14.38;12.98;;;;;;;12.81;100.00;99968.28;5281489;26;20239;-89
2024/05/01 05:55:18;;;;;;;13.75;12.52;;;;;;;12.86;100.00;99955.84;5275021;26;20264;-88
2024/05/01 05:57:46;;;;;;;12.35;11.25;;;;;;;13.11;100.00;99976.03;5261515;27;20251;-88
2024/05/01 06:00:17;;;;;;;16.35;14.85;;;;;;;13.18;100.00;99978.41;5304815;26;20241;-88
2024/05/01 06:02:46;;;;;;;15.38;14.07;;;;;;;13.27;100.00;99974.63;5307956;26;20236;-88
2024/05/01 06:05:14;;;;;;;16.13;14.63;;;;;;;13.24;100.00;99945.81;5305094;26;20650;-87
2024/05/01 06:07:43;;;;;;;16.65;15.10;;;;;;;13.36;100.00;99953.28;5290472;26;20260;-89
2024/05/01 06:10:11;;;;;;;17.10;15.45;;;;;;;13.44;100.00;99955.66;5296425;26;20253;-89
2024/05/01 06:12:39;;;;;;;17.30;15.45;;;;;;;13.46;100.00;99945.09;5344964;26;20344;-90
2024/05/01 06:15:08;;;;;;;15.70;14.20;;;;;;;13.63;100.00;99959.31;5319212;26;20252;-89
2024/05/01 06:17:39;;;;;;;16.75;13.57;;;;;;;13.60;100.00;99948.94;5318138;26;20240;-90
2024/05/01 06:20:09;;;;;;;15.57;14.18;;;;;;;13.47;100.00;99900.31;5326241;26;20306;-90
2024/05/01 06:22:38;;;;;;;14.25;12.75;;;;;;;13.77;100.00;99937.78;5330244;26;20232;-89
2024/05/01 06:25:07;;;;;;;14.35;13.05;;;;;;;13.88;100.00;99937.41;5357000;26;20283;-90
2024/05/01 06:27:35;;;;;;;14.13;12.65;;;;;;;14.02;100.00;99956.16;5328982;26;20329;-89
2024/05/01 06:30:04;;;;;;;13.07;11.77;;;;;;;13.70;100.00;99883.69;5305459;26;20290;-88
2024/05/01 06:32:32;;;;;;;14.07;12.77;;;;;;;14.15;100.00;99956.53;5354049;26;20793;-89
2024/05/01 06:35:03;;;;;;;13.27;12.05;;;;;;;14.14;100.00;99946.06;5318579;26;20263;-89
2024/05/01 06:37:32;;;;;;;13.48;12.07;;;;;;;14.08;100.00;99912.94;5342353;26;20272;-90
2024/05/01 06:40:00;;;;;;;13.18;11.88;;;;;;;14.29;100.00;99939.34;5298048;26;20245;-89
2024/05/01 06:42:29;;;;;;;13.43;12.02;;;;;;;14.39;100.00;99940.69;5332709;26;20244;-89
2024/05/01 06:44:57;;;;;;;13.77;12.48;;;;;;;14.49;100.00;99941.19;5300926;26;20255;-89
2024/05/01 06:47:25;;;;;;;16.35;12.50;;;;;;;14.09;100.00;99867.28;5301023;26;20275;-89
2024/05/01 06:49:54;;;;;;;13.18;11.63;;;;;;;14.68;100.00;99957.16;5313777;26;20367;-89
2024/05/01 06:52:25;;;;;;;12.30;11.10;;;;;;;14.72;100.00;99956.97;5339564;26;20342;-88
2024/05/01 06:54:53;;;;;;;12.60;11.38;;;;;;;14.74;100.00;99949.00;5304066;26;20244;-89
2024/05/01 06:57:22;;;;;;;11.70;10.55;;;;;;;14.61;100.00;99911.75;5301700;26;20283;-89
2024/05/01 06:59:53;;;;;;;13.13;11.80;;;;;;;14.91;100.00;99961.47;5310422;26;20338;-89
2024/05/01 07:02:21;;;;;;;11.25;10.27;;;;;;;14.55;100.00;99894.41;5305617;26;20247;-90
2024/05/01 07:04:50;;;;;;;11.48;9.65;;;;;;;14.90;100.00;99936.91;5304103;26;20650;-90
2024/05/01 07:07:18;;;;;;;13.02;9.73;;;;;;;14.95;100.00;99936.69;5292829;26;20283;-90
2024/05/01 07:09:50;;;;;;;10.95;9.82;;;;;;;15.03;100.00;99937.22;5322222;26;20275;-89
2024/05/01 07:12:18;;;;;;;10.15;9.25;;;;;;;14.96;100.00;99901.50;5302605;26;20817;-89
2024/05/01 07:14:46;;;;;;;10.13;9.30;;;;;;;15.30;100.00;99940.47;5302954;26;20362;-89
2024/05/01 07:17:15;;;;;;;10.88;9.70;;;;;;;15.09;100.00;99891.31;5324258;26;20652;-88
2024/05/01 07:19:43;;;;;;;10.85;9.85;;;;;;;15.35;100.00;99927.94;5338708;26;20267;-89
2024/05/01 07:22:11;;;;;;;10.55;9.30;;;;;;;15.49;100.00;99932.63;5309174;26;20315;-89
2024/05/01 07:24:40;;;;;;;10.13;8.68;;;;;;;15.48;100.00;99919.47;5295422;26;20387;-89
2024/05/01 07:27:11;;;;;;;9.73;8.57;;;;;;;15.37;100.00;99880.41;5301562;26;20237;-90
2024/05/01 07:29:39;;;;;;;9.13;8.18;;;;;;;15.61;100.00;99913.59;5324119;26;20355;-89
2024/05/01 07:32:08;;;;;;;10.00;8.60;;;;;;;15.81;100.00;99928.56;5315083;26;20354;-89
2024/05/01 07:34:36;;;;;;;9.02;8.10;;;;;;;15.83;100.00;99923.19;5293153;26;20294;-89
2024/05/01 07:37:04;;;;;;;9.07;8.15;;;;;;;15.59;100.00;99865.31;5288382;26;20251;-90
2024/05/01 07:39:33;;;;;;;16.08;8.00;;;;;;;15.74;100.00;99884.88;5322251;26;20244;-90
2024/05/01 07:42:01;;;;;;;8.15;7.45;;;;;;;15.62;100.00;99835.28;5294733;26;20279;-89
2024/05/01 07:44:32;;;;;;;8.07;7.28;;;;;;;16.02;100.00;99900.31;5298780;26;20279;-90
2024/05/01 07:47:01;;;;;;;8.50;7.45;;;;;;;16.18;100.00;99908.34;5303383;26;20245;-90
2024/05/01 07:49:29;;;;;;;7.97;7.38;;;;;;;15.81;100.00;99832.66;5312082;26;20336;-87
2024/05/01 07:51:58;;;;;;;9.38;8.40;;;;;;;16.34;100.00;99895.25;5299911;26;20245;-85
2024/05/01 07:54:26;;;;;;;9.63;7.95;;;;;;;16.43;100.00;99901.88;5311155;26;20244;-87
2024/05/01 07:56:55;;;;;;;8.05;7.25;;;;;;;16.13;100.00;99846.13;5285066;26;20378;-89
2024/05/01 07:59:23;;;;;;;10.45;7.53;;;;;;;16.58;100.00;99906.41;5294617;26;20243;-89
2024/05/01 08:01:54;;;;;;;8.65;6.88;;;;;;;16.64;100.00;99908.75;5314812;26;20883;-87
2024/05/01 08:04:23;;;;;;;8.35;6.53;;;;;;;16.57;100.00;99877.44;5295567;26;20249;-88
2024/05/01 08:06:51;;;;;;;7.43;6.75;;;;;;;16.45;100.00;99844.53;5287355;26;20301;-88
2024/05/01 08:09:19;;;;;;;7.70;6.68;;;;;;;16.86;100.00;99917.44;5298966;26;20244;-88
2024/05/01 08:11:48;;;;;;;6.78;6.18;;;;;;;16.68;100.00;99868.97;5304364;26;20240;-89
2024/05/01 08:14:16;;;;;;;6.35;5.78;;;;;;;16.85;100.00;99884.84;5319174;26;20269;-90
2024/05/01 08:16:45;;;;;;;7.32;6.10;;;;;;;16.81;100.00;99878.88;5302104;26;20287;-90
2024/05/01 08:19:19;;;;;;;6.63;5.93;;;;;;;17.04;99.22;99895.34;5296052;26;20721;-89
2024/05/01 08:21:47;;;;;;;9.73;6.18;;;;;;;17.07;98.61;99897.81;5325501;26;20737;-88
2024/05/01 08:24:15;;;;;;;7.22;5.57;;;;;;;17.25;97.86;99907.44;5307915;26;20318;-90
2024/05/01 08:26:44;;;;;;;10.68;6.13;;;;;;;17.19;97.13;99881.31;5311142;26;20400;-88
2024/05/01 08:29:12;;;;;;;6.60;5.68;;;;;;;17.16;96.78;99864.78;5305230;26;20248;-88
2024/05/01 08:31:40;;;;;;;8.85;5.65;;;;;;;17.51;96.46;99897.28;5297018;26;20320;-89
2024/05/01 08:34:09;;;;;;;6.68;5.70;;;;;;;17.49;94.67;99863.91;5341694;26;20823;-89
2024/05/01 08:36:40;;;;;;;7.53;5.57;;;;;;;17.61;94.59;99869.38;5333230;26;20247;-89
2024/05/01 08:39:08;;;;;;;8.63;5.43;;;;;;;17.61;95.18;99866.75;5302565;26;20361;-88
2024/05/01 08:41:41;;;;;;;7.75;6.00;;;;;;;17.86;93.05;99891.91;5298737;26;20239;-89
2024/05/01 08:44:10;;;;;;;6.20;5.53;;;;;;;17.85;91.55;99871.69;5300541;26;20252;-91
2024/05/01 08:46:41;;;;;;;6.57;5.22;;;;;;;17.58;90.24;99826.34;5299161;26;20720;-89
2024/05/01 08:49:11;;;;;;;7.43;5.78;;;;;;;17.73;89.65;99829.97;5337662;26;20247;-89
2024/05/01 08:51:50;;;;;;;8.82;4.97;;;;;;;17.93;89.98;99847.41;5318230;26;20245;-88
2024/05/01 08:54:19;;;;;;;8.50;5.05;;;;;;;18.15;89.97;99869.09;5325954;26;20246;-87
2024/05/01 08:56:47;;;;;;;8.00;5.15;;;;;;;18.17;87.48;99858.41;5304657;26;20264;-87
2024/05/01 08:59:17;;;;;;;7.30;5.10;;;;;;;18.37;86.50;99884.63;5304107;26;20341;-89
2024/05/01 09:01:45;;;;;;;5.88;5.18;;;;;;;18.04;85.88;99810.56;5300145;26;20718;-88
2024/05/01 09:04:16;;;;;;;5.80;5.30;;;;;;;18.36;85.33;99861.72;5339019;26;20275;-89
2024/05/01 09:06:54;;;;;;;6.07;5.35;;;;;;;18.42;83.82;99852.56;5304358;26;20240;-88
2024/05/01 09:09:24;;;;;;;7.63;5.20;;;;;;;18.47;84.47;99850.50;5309491;26;20243;-89
2024/05/01 09:11:54;;;;;;;5.70;5.00;;;;;;;18.49;84.93;99842.47;5321015;26;20257;-87
2024/05/01 09:14:31;;;;;;;7.80;5.20;;;;;;;18.59;84.21;99852.44;5349393;26;20251;-87
2024/05/01 09:16:59;;;;;;;6.18;5.10;;;;;;;18.64;84.29;99844.19;5319675;26;21186;-89
2024/05/01 09:19:28;;;;;;;5.55;5.05;;;;;;;18.75;83.83;99843.59;5319214;26;20247;-88
2024/05/01 09:21:59;;;;;;;5.57;4.93;;;;;;;18.81;84.09;99838.78;5312395;26;20240;-88
2024/05/01 09:24:27;;;;;;;6.80;5.05;;;;;;;18.77;83.53;99820.47;5301857;26;20283;-87
2024/05/01 09:26:56;;;;;;;6.50;5.40;;;;;;;18.96;81.65;99849.44;5327944;26;20353;-87
2024/05/01 09:29:26;;;;;;;7.70;4.93;;;;;;;19.10;81.58;99861.88;5298826;26;20320;-87
2024/05/01 09:31:55;;;;;;;7.43;4.82;;;;;;;19.14;81.44;99845.66;5304961;26;20244;-87
2024/05/01 09:34:24;;;;;;;7.10;4.65;;;;;;;19.29;80.31;99854.47;5296219;26;20257;-88
2024/05/01 09:37:05;;;;;;;4.88;4.40;;;;;;;18.99;80.26;99786.44;5337802;26;20252;-87
2024/05/01 09:39:37;;;;;;;6.57;4.65;;;;;;;19.19;78.64;99816.19;5307408;26;20244;-86
2024/05/01 09:42:08;;;;;;;5.65;4.18;;;;;;;19.34;78.09;99823.19;5302930;26;20240;-88
2024/05/01 09:44:37;;;;;;;7.20;4.60;;;;;;;19.29;78.60;99800.53;5304031;26;20252;-87
2024/05/01 09:47:07;;;;;;;5.05;4.55;;;;;;;19.20;78.64;99786.91;5330508;26;20252;-89
2024/05/01 09:49:36;;;;;;;4.97;4.55;;;;;;;19.36;78.80;99800.06;5293498;26;20739;-88
2024/05/01 09:52:07;;;;;;;6.75;4.05;;;;;;;19.66;78.49;99833.59;5308389;26;20245;-88
2024/05/01 09:54:35;;;;;;;5.90;4.38;;;;;;;19.39;76.02;99783.94;5307429;26;20327;-86
2024/05/01 09:57:07;;;;;;;6.05;4.30;;;;;;;19.79;74.53;99831.91;5295777;26;20315;-87
2024/05/01 09:59:36;;;;;;;6.55;4.13;;;;;;;19.72;74.58;99808.47;5310061;26;20275;-87
2024/05/01 10:02:06;;;;;;;7.20;5.10;;;;;;;19.77;75.16;99795.78;5309698;26;20294;-86
2024/05/01 10:04:34;;;;;;;8.70;4.82;;;;;;;19.72;74.94;99772.16;5305143;26;20287;-88
2024/05/01 10:07:03;;;;;;;6.13;4.82;;;;;;;19.80;75.75;99776.97;5302916;26;20282;-88
2024/05/01 10:09:34;;;;;;;6.90;4.95;;;;;;;19.96;75.61;99798.91;5320483;26;20390;-88
2024/05/01 10:12:06;;;;;;;5.18;4.30;;;;;;;19.78;73.79;99755.84;5305312;26;20256;-88
2024/05/01 10:14:38;;;;;;;6.25;4.53;;;;;;;20.00;72.69;99795.09;5303415;26;20248;-86
2024/05/01 10:17:14;;;;;;;7.72;4.32;;;;;;;19.81;72.65;99745.00;5320868;26;20323;-89
2024/05/01 10:19:56;;;;;;;8.05;4.95;;;;;;;20.28;73.03;99805.75;5304391;26;20811;-89
2024/05/01 10:22:24;;;;;;;6.43;4.57;;;;;;;20.25;72.60;99796.16;5290956;26;20602;-87
2024/05/01 10:25:02;;;;;;;8.77;4.93;;;;;;;20.12;73.27;99763.38;5304856;26;20244;-86
2024/05/01 10:27:30;;;;;;;8.90;4.93;;;;;;;20.30;72.63;99770.13;5317589;26;20252;-89
2024/05/01 10:29:58;;;;;;;7.30;4.95;;;;;;;20.42;70.72;99784.41;5299733;26;20333;-86
2024/05/01 10:32:27;;;;;;;8.60;5.15;;;;;;;20.53;69.82;99789.00;5341970;26;20240;-86
2024/05/01 10:34:56;;;;;;;7.40;5.20;;;;;;;20.33;69.98;99755.75;5306451;26;20263;-87
2024/05/01 10:37:25;;;;;;;6.43;4.85;;;;;;;20.45;69.30;99762.91;5318683;26;20264;-87
2024/05/01 10:39:58;;;;;;;9.18;5.13;;;;;;;20.63;70.05;99790.09;5312937;26;20679;-86
2024/05/01 10:42:27;;;;;;;7.75;4.88;;;;;;;20.15;70.23;99705.56;5327415;26;20266;-87
2024/05/01 10:45:01;;;;;;;6.78;4.45;;;;;;;20.71;69.62;99781.59;5306984;26;20248;-86
2024/05/01 10:47:32;;;;;;;5.07;4.65;;;;;;;20.71;70.08;99774.47;5306886;26;20255;-87
2024/05/01 10:50:00;;;;;;;7.15;4.93;;;;;;;20.40;69.42;99702.06;5331635;26;20292;-88
2024/05/01 10:52:29;;;;;;;6.03;4.28;;;;;;;20.92;68.66;99773.94;5339654;26;20235;-88
2024/05/01 10:55:00;;;;;;;5.90;4.53;;;;;;;20.60;69.37;99722.00;5294035;26;20260;-88
2024/05/01 10:57:30;;;;;;;8.20;4.70;;;;;;;20.87;69.65;99757.44;5292234;26;20247;-88
2024/05/01 10:59:59;;;;;;;7.20;4.63;;;;;;;21.02;69.08;99764.34;5304538;26;20243;-87
2024/05/01 11:02:28;;;;;;;5.50;4.57;;;;;;;21.04;69.38;99757.97;5292759;26;20257;-86
2024/05/01 11:05:00;;;;;;;5.03;4.18;;;;;;;20.92;70.13;99732.19;5327972;26;20664;-86
2024/05/01 11:07:29;;;;;;;9.18;5.03;;;;;;;20.98;70.60;99734.44;5316024;26;20304;-84
2024/05/01 11:10:03;;;;;;;6.55;4.35;;;;;;;21.05;70.14;99748.19;5288828;26;20614;-85
2024/05/01 11:12:31;;;;;;;7.60;4.70;;;;;;;21.17;69.44;99747.31;5315090;26;20278;-86
2024/05/01 11:15:03;;;;;;;4.97;4.28;;;;;;;21.24;69.98;99735.25;5303535;26;20351;-85
2024/05/01 11:17:33;;;;;;;7.32;4.55;;;;;;;21.28;70.63;99741.22;5302649;26;20824;-85
2024/05/01 11:20:01;;;;;;;6.95;4.45;;;;;;;21.27;70.09;99720.00;5326722;26;20270;-86
2024/05/01 11:22:30;;;;;;;7.00;4.30;;;;;;;20.87;70.55;99651.03;5285870;26;20248;-85